createdAt,value
2023-05-14T00:07:23.229Z,21.1
2023-05-14T00:17:25.331Z,21.1
2023-05-14T00:27:27.614Z,21
2023-05-14T00:37:30.249Z,21
2023-05-14T00:47:32.193Z,21
2023-05-14T00:57:34.694Z,20.9
2023-05-14T01:07:37.057Z,20.9
2023-05-14T01:17:39.153Z,20.9
2023-05-14T01:27:41.236Z,20.9
2023-05-14T01:37:43.266Z,20.8
2023-05-14T01:47:45.287Z,20.8
2023-05-14T01:57:47.630Z,20.7
2023-05-14T02:07:49.776Z,20.7
2023-05-14T02:17:51.942Z,20.7
2023-05-14T02:27:54.187Z,20.7
2023-05-14T02:37:56.224Z,20.7
2023-05-14T02:47:58.329Z,20.6
2023-05-14T02:58:00.257Z,20.6
2023-05-14T03:08:02.507Z,20.5
2023-05-14T03:18:04.562Z,20.5
2023-05-14T03:28:06.490Z,20.5
2023-05-14T03:38:08.331Z,20.5
2023-05-14T03:48:10.326Z,20.4
2023-05-14T03:58:12.738Z,20.4
2023-05-14T04:08:15.288Z,20.5
2023-05-14T04:18:17.344Z,20.5
2023-05-14T04:28:19.609Z,20.5
2023-05-14T04:38:21.318Z,20.6
2023-05-14T04:48:23.120Z,20.7
2023-05-14T04:58:24.809Z,20.8
2023-05-14T05:08:26.549Z,20.8
2023-05-14T05:18:28.441Z,20.9
2023-05-14T05:28:30.284Z,21
2023-05-14T05:38:32.365Z,21.1
2023-05-14T05:58:36.890Z,21.5
2023-05-14T06:08:39.340Z,21.9
2023-05-14T06:18:41.885Z,22.3
2023-05-14T06:28:43.757Z,22.9
2023-05-14T06:38:45.475Z,24.1
2023-05-14T06:58:50.420Z,25.4
2023-05-14T07:08:52.222Z,25.7
2023-05-14T07:18:54.479Z,26.1
2023-05-14T07:28:57.003Z,26.3
2023-05-14T07:38:59.600Z,26.7
2023-05-14T07:49:01.814Z,26.9
2023-05-14T07:59:04.502Z,27.2
2023-05-14T08:09:06.724Z,27.6
2023-05-14T08:19:08.983Z,27.3
2023-05-14T08:29:11.597Z,27.4
2023-05-14T08:49:15.455Z,27.7
2023-05-14T08:59:17.529Z,27.3
2023-05-14T09:09:19.447Z,27.2
2023-05-14T09:19:21.924Z,27.3
2023-05-14T09:29:24.015Z,27.1
2023-05-14T09:39:25.933Z,27
2023-05-14T09:49:27.909Z,26.6
2023-05-14T09:59:30.380Z,26.4
2023-05-14T10:09:32.137Z,26.2
2023-05-14T10:19:34.379Z,26.1
2023-05-14T10:29:36.943Z,26
2023-05-14T10:39:38.764Z,25.9
2023-05-14T10:49:43.712Z,25.7
2023-05-14T10:59:42.744Z,25.6
2023-05-14T11:09:45.154Z,25.5
2023-05-14T11:19:47.914Z,25.3
2023-05-14T11:29:56.383Z,25.3
2023-05-14T11:39:58.075Z,25.1
2023-05-14T11:50:00.044Z,25.1
2023-05-14T12:00:02.334Z,25
2023-05-14T12:10:04.344Z,24.9
2023-05-14T12:20:06.818Z,24.8
2023-05-14T12:40:11.088Z,24.8
2023-05-14T12:50:13.343Z,24.7
2023-05-14T13:00:15.753Z,24.7
2023-05-14T13:10:18.149Z,24.7
2023-05-14T13:20:19.889Z,24.7
2023-05-14T13:40:24.740Z,24.6
2023-05-14T13:50:26.744Z,24.6
2023-05-14T14:00:29.060Z,24.6
2023-05-14T14:10:31.057Z,24.5
2023-05-14T14:30:34.883Z,24.4
2023-05-14T14:40:37.250Z,24.5
2023-05-14T14:50:39.738Z,24.5
2023-05-14T15:00:41.890Z,24.4
2023-05-14T15:10:43.733Z,24.4
2023-05-14T15:20:46.437Z,24.4
2023-05-14T15:30:48.445Z,24.4
2023-05-14T15:40:50.542Z,24.3
2023-05-14T15:50:52.640Z,24.3
2023-05-14T16:00:54.519Z,24.3
2023-05-14T16:10:56.588Z,24.2
2023-05-14T16:20:58.801Z,24.2
2023-05-14T16:31:02.863Z,24.2
2023-05-14T16:41:02.977Z,24.1
2023-05-14T16:51:04.792Z,24
2023-05-14T17:01:09.399Z,24
2023-05-14T17:11:09.649Z,24
2023-05-14T17:21:11.990Z,23.9
2023-05-14T17:31:14.063Z,23.9
2023-05-14T17:41:15.996Z,23.9
2023-05-14T17:51:17.794Z,23.8
2023-05-14T18:01:19.909Z,23.7
2023-05-14T18:11:22.539Z,23.6
2023-05-14T18:31:26.784Z,23.3
2023-05-14T18:41:29.306Z,23.3
2023-05-14T18:51:31.422Z,23.2
2023-05-14T19:01:33.774Z,23.2
2023-05-14T19:11:36.025Z,23.1
2023-05-14T19:21:38.274Z,23
2023-05-14T19:31:40.633Z,22.9
2023-05-14T19:41:42.718Z,22.9
2023-05-14T19:51:45.190Z,22.9
2023-05-14T20:01:47.445Z,22.8
2023-05-14T20:11:49.291Z,22.7
2023-05-14T20:21:51.012Z,22.7
2023-05-14T20:41:54.917Z,22.6
2023-05-14T20:51:56.692Z,22.6
2023-05-14T21:01:58.839Z,22.5
2023-05-14T21:12:01.430Z,22.5
2023-05-14T21:22:03.384Z,22.4
2023-05-14T21:32:06.104Z,22.4
2023-05-14T21:42:08.181Z,22.4
2023-05-14T21:52:10.352Z,22.3
2023-05-14T22:02:12.277Z,22.3
2023-05-14T22:22:16.006Z,22.2
2023-05-14T22:32:17.794Z,22.2
2023-05-14T22:42:19.647Z,22.1
2023-05-14T22:52:21.914Z,22
2023-05-14T23:02:24.013Z,22
2023-05-14T23:42:33.122Z,21.8
2023-05-14T23:52:35.533Z,21.8
